Time;durP1;ratioP1;P1;durP2;ratioP2;P2;SDS_P1;SDS_P2;PMS_P1;PMS_P2;Temp;Humidity;BMP_temperature;BMP_pressure;BME280_temperature;BME280_humidity;BME280_pressure;Samples;Min_cycle;Max_cycle;Signal;HPM_P1;HPM_P2
2023/10/09 00:01:12;;;;;;;;;;;;;;;19.70;54.51;95718.91;5120705;27;1192;-57
2023/10/09 00:03:03;;;;;;;;;;;;;;;19.59;55.18;95722.22;5106575;28;1153;-57
2023/10/09 00:08:47;;;;;;;;;;;;;;;19.55;55.15;95721.78;5117529;28;997;-57
2023/10/09 00:11:16;;;;;;;;;;;;;;;19.51;54.93;95718.63;5102169;28;1906;-57
2023/10/09 00:13:57;;;;;;;;;;;;;;;19.47;55.07;95725.50;5096915;28;1007;-58
2023/10/09 00:16:32;;;;;;;;;;;;;;;19.40;55.53;95729.25;5096735;28;941;-57
2023/10/09 00:19:16;;;;;;;;;;;;;;;19.34;55.64;95713.78;5096672;28;1123;-58
2023/10/09 00:21:44;;;;;;;;;;;;;;;19.29;55.77;95715.22;5096966;28;985;-58
2023/10/09 00:24:13;;;;;;;;;;;;;;;19.25;55.65;95724.78;5096537;28;945;-58
2023/10/09 00:26:49;;;;;;;;;;;;;;;19.26;55.65;95737.31;5096550;28;1029;-57
2023/10/09 00:29:21;;;;;;;;;;;;;;;19.27;55.65;95741.72;5096653;28;973;-57
2023/10/09 00:31:55;;;;;;;;;;;;;;;19.29;55.28;95736.06;5096697;28;1902;-57
2023/10/09 00:34:22;;;;;;;;;;;;;;;19.28;55.34;95737.13;5096329;28;1847;-57
2023/10/09 00:36:51;;;;;;;;;;;;;;;19.20;55.20;95732.69;5096406;28;1012;-57
2023/10/09 00:42:02;;;;;;;;;;;;;;;19.21;54.90;95734.34;5096476;28;1057;-57
2023/10/09 00:44:38;;;;;;;;;;;;;;;19.18;55.35;95733.91;5096093;28;1049;-58
2023/10/09 00:47:10;;;;;;;;;;;;;;;19.12;55.39;95735.56;5096296;28;1237;-57
2023/10/09 00:49:41;;;;;;;;;;;;;;;19.03;55.42;95740.31;5078462;28;1918;-57
2023/10/09 00:52:18;;;;;;;;;;;;;;;19.00;55.56;95748.00;5096329;28;1061;-57
2023/10/09 00:54:50;;;;;;;;;;;;;;;18.96;55.88;95744.03;5096339;28;1127;-58
2023/10/09 00:57:18;;;;;;;;;;;;;;;18.97;55.76;95740.25;5095872;28;1021;-57
2023/10/09 00:59:46;;;;;;;;;;;;;;;18.92;55.74;95743.59;5109197;28;1174;-58
2023/10/09 01:02:12;;;;;;;;;;;;;;;18.86;56.23;95750.63;5116211;28;970;-58
2023/10/09 01:04:44;;;;;;;;;;;;;;;18.84;56.68;95741.88;5115867;28;1028;-58
2023/10/09 01:07:25;;;;;;;;;;;;;;;18.84;56.18;95739.16;5116035;28;1044;-58
2023/10/09 01:09:54;;;;;;;;;;;;;;;18.79;56.57;95733.47;5116782;27;1918;-58
2023/10/09 01:12:21;;;;;;;;;;;;;;;18.69;56.72;95744.66;5136603;27;1056;-58
2023/10/09 01:14:54;;;;;;;;;;;;;;;18.60;56.98;95750.41;5136499;27;976;-57
2023/10/09 01:17:45;;;;;;;;;;;;;;;18.53;56.91;95743.09;5136629;27;960;-58
2023/10/09 01:20:22;;;;;;;;;;;;;;;18.52;57.38;95741.41;5136208;27;1267;-57
2023/10/09 01:22:50;;;;;;;;;;;;;;;18.53;57.61;95734.97;5118266;27;1040;-58
2023/10/09 01:25:16;;;;;;;;;;;;;;;18.48;57.72;95736.59;5136256;27;995;-57
2023/10/09 01:27:43;;;;;;;;;;;;;;;18.45;57.73;95739.66;5136592;27;1058;-57
2023/10/09 01:30:13;;;;;;;;;;;;;;;18.34;58.04;95741.03;5136158;27;1995;-57
2023/10/09 01:32:40;;;;;;;;;;;;;;;18.13;58.89;95742.72;5136216;27;1839;-58
2023/10/09 01:35:20;;;;;;;;;;;;;;;18.00;59.36;95734.47;5136209;27;1051;-57
2023/10/09 01:37:50;;;;;;;;;;;;;;;17.96;59.40;95733.19;5136083;27;1316;-57
2023/10/09 01:40:26;;;;;;;;;;;;;;;18.00;58.97;95749.88;5136302;27;977;-57
2023/10/09 01:42:52;;;;;;;;;;;;;;;18.05;58.82;95737.44;5136389;27;1044;-59
2023/10/09 01:47:51;;;;;;;;;;;;;;;17.79;59.65;95737.97;5135903;27;1590;-58
2023/10/09 01:50:27;;;;;;;;;;;;;;;17.76;60.00;95739.19;5135608;27;1980;-58
2023/10/09 01:52:53;;;;;;;;;;;;;;;17.72;59.85;95747.91;5135849;27;1092;-58
2023/10/09 01:55:33;;;;;;;;;;;;;;;17.56;60.26;95746.25;5135743;27;1102;-58
2023/10/09 01:58:05;;;;;;;;;;;;;;;17.51;59.96;95749.53;5135901;27;1104;-58
2023/10/09 02:00:42;;;;;;;;;;;;;;;17.64;59.66;95739.88;5115591;27;1244;-58
2023/10/09 02:03:18;;;;;;;;;;;;;;;17.68;59.48;95736.63;5114998;28;1049;-58
2023/10/09 02:05:45;;;;;;;;;;;;;;;17.49;60.74;95743.47;5115200;28;1040;-58
2023/10/09 02:08:11;;;;;;;;;;;;;;;17.30;61.15;95744.91;5097082;28;1043;-58
2023/10/09 02:10:47;;;;;;;;;;;;;;;17.08;62.31;95751.25;5114676;28;2000;-58
2023/10/09 02:13:16;;;;;;;;;;;;;;;16.96;62.84;95754.44;5114855;28;976;-58
2023/10/09 02:26:25;;;;;;;;;;;;;;;17.14;60.97;95767.53;5114774;28;1035;-58
2023/10/09 02:31:40;;;;;;;;;;;;;;;17.21;60.01;95773.06;5114356;28;1983;-58
2023/10/09 02:34:08;;;;;;;;;;;;;;;17.27;58.93;95777.69;5114821;28;1040;-58
2023/10/09 02:36:43;;;;;;;;;;;;;;;17.24;58.84;95785.34;5114601;28;957;-58
2023/10/09 02:39:26;;;;;;;;;;;;;;;17.18;58.52;95797.72;5114616;28;1044;-58
2023/10/09 02:42:01;;;;;;;;;;;;;;;17.20;58.13;95792.16;5114433;28;1028;-57
2023/10/09 02:44:34;;;;;;;;;;;;;;;17.20;58.61;95797.56;5114384;28;976;-58
2023/10/09 02:47:05;;;;;;;;;;;;;;;17.17;58.97;95813.13;5114316;28;1095;-58
2023/10/09 02:49:31;;;;;;;;;;;;;;;17.02;59.03;95811.44;5114118;28;1905;-58
2023/10/09 02:51:57;;;;;;;;;;;;;;;17.02;59.13;95816.84;5114159;28;1099;-58
2023/10/09 02:59:31;;;;;;;;;;;;;;;16.92;58.71;95814.38;5125592;27;1165;-57
2023/10/09 03:01:59;;;;;;;;;;;;;;;16.96;58.47;95810.31;5134831;27;1055;-58
2023/10/09 03:04:29;;;;;;;;;;;;;;;16.98;57.83;95821.78;5134456;27;1123;-58
2023/10/09 03:06:57;;;;;;;;;;;;;;;16.88;57.69;95816.63;5134643;27;1004;-58
2023/10/09 03:09:29;;;;;;;;;;;;;;;16.88;57.99;95829.28;5116487;27;957;-58
2023/10/09 03:12:09;;;;;;;;;;;;;;;16.93;57.73;95827.72;5134273;27;1640;-58
2023/10/09 03:14:38;;;;;;;;;;;;;;;16.98;57.19;95827.19;5134649;28;953;-58
2023/10/09 03:17:04;;;;;;;;;;;;;;;16.92;57.02;95820.66;5134380;28;1114;-58
2023/10/09 03:19:37;;;;;;;;;;;;;;;16.81;57.79;95812.09;5134581;28;1032;-59
2023/10/09 03:22:03;;;;;;;;;;;;;;;16.73;57.41;95829.22;5134399;28;1032;-58
2023/10/09 03:24:32;;;;;;;;;;;;;;;16.67;57.20;95855.09;5134189;28;1039;-58
2023/10/09 03:26:58;;;;;;;;;;;;;;;16.67;57.04;95859.66;5118607;27;973;-58
2023/10/09 03:29:24;;;;;;;;;;;;;;;16.68;56.43;95867.59;5138688;27;973;-58
2023/10/09 03:31:51;;;;;;;;;;;;;;;16.65;56.56;95862.53;5128931;27;1910;-60
2023/10/09 03:34:18;;;;;;;;;;;;;;;16.58;56.25;95858.91;5117981;28;914;-60
2023/10/09 03:36:47;;;;;;;;;;;;;;;16.55;56.37;95852.00;5118047;28;1040;-61
2023/10/09 03:41:58;;;;;;;;;;;;;;;16.50;56.74;95881.38;5117677;28;1177;-60
2023/10/09 03:44:28;;;;;;;;;;;;;;;16.51;56.82;95869.56;5117753;28;1040;-59
2023/10/09 03:46:54;;;;;;;;;;;;;;;16.53;56.30;95859.44;5099707;28;1015;-60
2023/10/09 03:49:23;;;;;;;;;;;;;;;16.52;56.34;95846.97;5117435;28;908;-60
2023/10/09 03:51:50;;;;;;;;;;;;;;;16.48;55.77;95847.50;5117569;28;1984;-60
2023/10/09 03:54:20;;;;;;;;;;;;;;;16.41;56.06;95858.19;5117767;28;976;-59
2023/10/09 03:56:49;;;;;;;;;;;;;;;16.35;56.44;95869.69;5117424;28;1056;-60
2023/10/09 03:59:21;;;;;;;;;;;;;;;16.24;56.84;95862.00;5117246;28;1208;-60
2023/10/09 04:01:48;;;;;;;;;;;;;;;16.30;56.71;95872.09;5117383;28;961;-60
2023/10/09 04:04:14;;;;;;;;;;;;;;;16.33;56.63;95871.72;5117457;28;973;-60
2023/10/09 04:06:40;;;;;;;;;;;;;;;16.31;56.75;95871.06;5117552;28;1051;-59
2023/10/09 04:09:27;;;;;;;;;;;;;;;16.35;56.61;95872.38;5117529;28;1009;-60
2023/10/09 04:12:20;;;;;;;;;;;;;;;16.24;57.24;95868.25;5099060;28;1906;-58
2023/10/09 04:14:57;;;;;;;;;;;;;;;16.19;57.00;95867.94;5096562;28;1084;-58
2023/10/09 04:25:25;;;;;;;;;;;;;;;16.22;55.98;95856.81;5096752;28;970;-56
2023/10/09 04:30:43;;;;;;;;;;;;;;;16.05;55.82;95869.56;5096765;28;1985;-57
2023/10/09 04:36:22;;;;;;;;;;;;;;;15.97;56.62;95864.19;5096687;28;962;-57
2023/10/09 04:41:52;;;;;;;;;;;;;;;16.08;56.25;95865.66;5096483;28;1040;-57
2023/10/09 04:44:29;;;;;;;;;;;;;;;15.95;56.58;95863.53;5096139;28;1044;-57
2023/10/09 04:50:01;;;;;;;;;;;;;;;15.62;57.31;95872.59;5096064;28;2022;-57
2023/10/09 04:57:45;;;;;;;;;;;;;;;15.58;57.47;95883.91;5096087;28;1012;-57
2023/10/09 05:00:35;;;;;;;;;;;;;;;15.56;58.49;95892.16;5112697;28;1154;-57
2023/10/09 05:03:07;;;;;;;;;;;;;;;15.57;58.50;95882.22;5116144;28;1538;-56
2023/10/09 05:08:21;;;;;;;;;;;;;;;15.49;58.88;95875.00;5115946;28;1117;-57
2023/10/09 05:16:05;;;;;;;;;;;;;;;15.49;57.49;95880.38;5136432;27;1028;-58
2023/10/09 05:18:37;;;;;;;;;;;;;;;15.39;57.52;95888.69;5136624;27;965;-58
2023/10/09 05:23:48;;;;;;;;;;;;;;;15.39;57.85;95912.09;5136316;27;1068;-58
2023/10/09 05:29:18;;;;;;;;;;;;;;;15.51;58.36;95899.91;5094482;27;1352;-58
2023/10/09 05:32:03;;;;;;;;;;;;;;;15.50;57.92;95898.25;5118137;27;1984;-58
2023/10/09 05:37:24;;;;;;;;;;;;;;;15.66;56.27;95905.44;5136079;27;1040;-58
2023/10/09 05:42:59;;;;;;;;;;;;;;;15.56;56.31;95923.66;5136138;27;1036;-57
2023/10/09 05:50:37;;;;;;;;;;;;;;;18.94;48.04;95958.28;5134760;27;1910;-58
2023/10/09 05:57:00;;;;;;;;;;;;;;;20.22;44.84;95969.91;5135569;27;1111;-58
2023/10/09 06:06:32;;;;;;;;;;;;;;;26.13;33.37;96048.72;5115084;28;966;-59
2023/10/09 06:11:48;;;;;;;;;;;;;;;27.25;31.67;96058.63;5114485;28;1914;-59
2023/10/09 06:24:18;;;;;;;;;;;;;;;24.23;35.17;96056.25;5114459;28;979;-59
2023/10/09 06:27:12;;;;;;;;;;;;;;;22.13;38.59;96047.66;5114740;28;1040;-58
2023/10/09 06:29:50;;;;;;;;;;;;;;;21.35;40.74;96036.53;5114395;28;1040;-58
2023/10/09 06:34:51;;;;;;;;;;;;;;;20.55;41.09;96026.22;5114293;28;905;-58
2023/10/09 06:39:50;;;;;;;;;;;;;;;20.41;38.77;96044.34;5114670;28;1040;-58
2023/10/09 06:42:43;;;;;;;;;;;;;;;20.11;37.86;96045.63;5114171;28;1123;-58
2023/10/09 06:56:24;;;;;;;;;;;;;;;20.72;35.31;96064.81;5113996;28;1302;-58
2023/10/09 06:58:41;;;;;;;;;;;;;;;20.52;36.00;96075.53;5110679;27;1157;-58
2023/10/09 07:01:25;;;;;;;;;;;;;;;20.48;34.46;96080.53;5116055;28;1040;-59
2023/10/09 07:03:54;;;;;;;;;;;;;;;20.61;35.20;96084.41;5134462;27;1021;-59
2023/10/09 07:17:00;;;;;;;;;;;;;;;20.74;33.32;96089.91;5113857;28;932;-58
2023/10/09 07:22:03;;;;;;;;;;;;;;;20.92;33.37;96078.44;5114070;28;957;-58
2023/10/09 07:27:45;;;;;;;;;;;;;;;21.19;32.67;96075.81;5096259;28;1286;-58
2023/10/09 07:38:29;;;;;;;;;;;;;;;21.83;31.02;96071.75;5113934;28;1052;-58
2023/10/09 07:40:56;;;;;;;;;;;;;;;21.86;32.27;96065.91;5113214;28;2947;-58
2023/10/09 07:43:27;;;;;;;;;;;;;;;22.06;31.39;96071.31;5134024;28;1183;-58
2023/10/09 07:48:38;;;;;;;;;;;;;;;22.06;30.75;96071.31;5134092;28;1111;-58
2023/10/09 07:51:11;;;;;;;;;;;;;;;21.97;30.60;96072.63;5133966;28;1902;-58
2023/10/09 07:53:44;;;;;;;;;;;;;;;21.91;32.18;96065.25;5134083;28;1040;-58
2023/10/09 07:56:20;;;;;;;;;;;;;;;22.12;32.29;96069.66;5134104;28;1569;-58
2023/10/09 07:58:47;;;;;;;;;;;;;;;22.14;32.68;96062.09;5133992;28;1192;-58
2023/10/09 08:01:34;;;;;;;;;;;;;;;22.17;32.80;96067.13;5132647;28;3060;-58
2023/10/09 08:04:20;;;;;;;;;;;;;;;22.28;33.05;96065.69;5134152;28;992;-58
2023/10/09 08:06:47;;;;;;;;;;;;;;;22.42;31.58;96053.69;5134280;28;988;-57
2023/10/09 08:16:51;;;;;;;;;;;;;;;22.41;30.66;96061.03;5137908;27;1017;-57
2023/10/09 08:19:32;;;;;;;;;;;;;;;22.38;31.04;96058.72;5137694;27;1038;-57
2023/10/09 08:22:50;;;;;;;;;;;;;;;22.52;31.53;96064.16;5137816;27;996;-57
2023/10/09 08:24:55;;;;;;;;;;;;;;;22.24;32.01;96057.06;5126613;27;1169;-57
2023/10/09 08:33:00;;;;;;;;;;;;;;;22.23;31.64;96055.38;5137495;27;969;-57
2023/10/09 08:35:29;;;;;;;;;;;;;;;22.13;30.61;96053.09;5137210;27;1029;-57
2023/10/09 08:37:58;;;;;;;;;;;;;;;22.51;30.73;96046.16;5137133;27;1107;-56
2023/10/09 08:40:37;;;;;;;;;;;;;;;22.40;31.40;96044.91;5137026;27;1103;-56
2023/10/09 08:43:08;;;;;;;;;;;;;;;22.27;31.44;96045.78;5137146;27;1094;-57
2023/10/09 08:45:39;;;;;;;;;;;;;;;22.57;30.01;96048.00;5137387;27;977;-56
2023/10/09 08:48:15;;;;;;;;;;;;;;;22.60;30.19;96040.25;5137085;27;981;-56
2023/10/09 08:50:42;;;;;;;;;;;;;;;22.61;29.14;96043.78;5136799;27;1975;-57
2023/10/09 08:53:10;;;;;;;;;;;;;;;22.54;29.46;96032.09;5136908;27;1035;-57
2023/10/09 08:55:39;;;;;;;;;;;;;;;22.57;29.82;96026.19;5137072;27;1003;-57
2023/10/09 08:58:13;;;;;;;;;;;;;;;22.63;30.47;96019.88;5126294;27;2754;-56
2023/10/09 09:00:43;;;;;;;;;;;;;;;22.77;29.69;96018.78;5095993;28;1049;-57
2023/10/09 09:03:09;;;;;;;;;;;;;;;22.80;30.86;96001.16;5096377;28;988;-57
2023/10/09 09:05:35;;;;;;;;;;;;;;;23.13;30.01;96005.63;5096030;28;1032;-57
2023/10/09 09:08:02;;;;;;;;;;;;;;;23.37;29.33;96017.63;5096107;28;1048;-57
2023/10/09 09:10:35;;;;;;;;;;;;;;;23.67;28.60;96019.72;5101314;28;1985;-57
2023/10/09 09:13:03;;;;;;;;;;;;;;;23.63;28.19;96013.88;5116325;28;957;-57
2023/10/09 09:15:30;;;;;;;;;;;;;;;23.28;27.81;96017.06;5115977;28;962;-57
2023/10/09 09:18:06;;;;;;;;;;;;;;;23.49;26.77;96023.25;5115887;28;1194;-57
2023/10/09 09:20:36;;;;;;;;;;;;;;;23.64;26.75;96022.88;5115839;28;1549;-57
2023/10/09 09:23:06;;;;;;;;;;;;;;;23.77;27.00;96017.31;5116289;28;976;-58
2023/10/09 09:25:45;;;;;;;;;;;;;;;24.10;26.18;96021.69;5115497;28;1079;-58
2023/10/09 09:28:21;;;;;;;;;;;;;;;24.18;25.21;96029.59;5115697;28;961;-57
2023/10/09 09:30:51;;;;;;;;;;;;;;;23.75;25.66;96023.03;5115986;28;1913;-57
2023/10/09 09:33:20;;;;;;;;;;;;;;;23.47;26.96;96017.16;5115301;28;1016;-57
2023/10/09 09:35:57;;;;;;;;;;;;;;;23.21;27.73;96005.38;5115474;28;1036;-56
2023/10/09 09:38:25;;;;;;;;;;;;;;;22.85;27.92;96003.25;5115371;28;1020;-56
2023/10/09 09:40:54;;;;;;;;;;;;;;;23.16;27.46;96003.31;5115328;28;1045;-57
2023/10/09 09:43:22;;;;;;;;;;;;;;;23.14;26.62;96008.13;5115283;28;1005;-57
2023/10/09 09:45:49;;;;;;;;;;;;;;;23.44;27.34;95999.31;5115876;28;1061;-57
2023/10/09 09:48:16;;;;;;;;;;;;;;;23.53;27.74;95991.72;5115162;28;1052;-57
2023/10/09 09:50:46;;;;;;;;;;;;;;;23.45;28.03;95998.28;5115453;28;1913;-57
2023/10/09 09:53:18;;;;;;;;;;;;;;;23.35;26.38;95997.91;5115116;28;1056;-57
2023/10/09 09:55:51;;;;;;;;;;;;;;;23.05;26.37;95994.97;5115417;28;1052;-57
2023/10/09 09:58:23;;;;;;;;;;;;;;;22.80;27.50;95980.19;5115955;27;1090;-59
2023/10/09 10:00:55;;;;;;;;;;;;;;;23.17;26.38;95979.59;5135967;27;985;-59
2023/10/09 10:03:26;;;;;;;;;;;;;;;23.29;26.27;95982.44;5135698;27;888;-58
2023/10/09 10:05:55;;;;;;;;;;;;;;;23.30;25.97;95984.13;5135598;27;1032;-58
2023/10/09 10:08:31;;;;;;;;;;;;;;;23.84;25.64;95973.63;5135429;27;1138;-57
2023/10/09 10:11:06;;;;;;;;;;;;;;;23.87;24.33;95974.00;5134555;27;2464;-57
2023/10/09 10:13:41;;;;;;;;;;;;;;;23.29;26.07;95968.78;5114942;28;1048;-57
2023/10/09 10:16:19;;;;;;;;;;;;;;;23.19;26.68;95963.81;5114997;28;985;-57
2023/10/09 10:18:59;;;;;;;;;;;;;;;23.55;27.49;95954.94;5114871;28;1111;-59
2023/10/09 10:21:37;;;;;;;;;;;;;;;23.87;26.29;95952.16;5114935;28;999;-57
2023/10/09 10:24:06;;;;;;;;;;;;;;;23.86;24.76;95950.47;5114821;28;1951;-57
2023/10/09 10:26:35;;;;;;;;;;;;;;;23.58;24.16;95957.22;5127057;27;1099;-57
2023/10/09 10:29:23;;;;;;;;;;;;;;;23.62;24.24;95949.44;5135179;27;1091;-58
2023/10/09 10:31:54;;;;;;;;;;;;;;;23.28;24.26;95937.13;5135133;27;1984;-58
2023/10/09 10:34:23;;;;;;;;;;;;;;;23.54;25.46;95931.44;5134955;27;1717;-58
2023/10/09 10:36:52;;;;;;;;;;;;;;;23.74;25.69;95933.16;5134595;27;1035;-58
2023/10/09 10:39:21;;;;;;;;;;;;;;;24.06;24.96;95927.59;5135308;27;1009;-58
2023/10/09 10:41:54;;;;;;;;;;;;;;;24.14;24.63;95911.72;5134963;27;1087;-58
2023/10/09 10:44:38;;;;;;;;;;;;;;;24.18;24.81;95920.31;5134964;27;1059;-58
2023/10/09 10:47:24;;;;;;;;;;;;;;;24.34;24.90;95903.31;5134935;27;996;-58
2023/10/09 10:49:52;;;;;;;;;;;;;;;23.90;24.14;95908.03;5134735;27;1983;-58
2023/10/09 10:52:22;;;;;;;;;;;;;;;23.30;25.08;95900.38;5134886;27;968;-59
2023/10/09 10:55:05;;;;;;;;;;;;;;;23.33;26.18;95901.81;5134767;27;1032;-59
2023/10/09 10:57:53;;;;;;;;;;;;;;;23.26;26.08;95898.28;5134655;27;1020;-59
2023/10/09 11:03:13;;;;;;;;;;;;;;;23.69;25.11;95890.13;5114026;28;1032;-59
2023/10/09 11:05:42;;;;;;;;;;;;;;;23.86;25.43;95886.84;5114370;28;997;-59
2023/10/09 11:08:13;;;;;;;;;;;;;;;23.79;25.16;95884.19;5113949;28;1099;-59
2023/10/09 11:10:49;;;;;;;;;;;;;;;23.68;24.75;95884.91;5113872;28;1997;-59
2023/10/09 11:13:33;;;;;;;;;;;;;;;23.68;25.13;95876.72;5114114;28;997;-59
2023/10/09 11:16:41;;;;;;;;;;;;;;;23.61;24.75;95870.50;5114035;28;996;-59
2023/10/09 11:18:48;;;;;;;;;;;;;;;23.37;24.91;95871.13;5111505;28;1526;-59
2023/10/09 11:26:29;;;;;;;;;;;;;;;23.60;25.65;95856.00;5113709;28;1447;-59
2023/10/09 11:31:41;;;;;;;;;;;;;;;23.73;23.85;95855.03;5113605;28;1979;-59
2023/10/09 11:34:31;;;;;;;;;;;;;;;23.52;23.47;95843.50;5113997;28;996;-59
2023/10/09 11:37:01;;;;;;;;;;;;;;;23.51;24.88;95843.72;5147240;27;2569;-59
2023/10/09 11:39:32;;;;;;;;;;;;;;;23.69;24.66;95835.53;5155101;27;1019;-59
2023/10/09 11:42:04;;;;;;;;;;;;;;;23.83;24.67;95828.06;5154952;27;1019;-59
2023/10/09 11:44:39;;;;;;;;;;;;;;;23.74;24.74;95826.66;5155021;27;973;-59
2023/10/09 11:55:01;;;;;;;;;;;;;;;23.07;23.95;95791.88;5158909;27;1088;-59
2023/10/09 11:57:30;;;;;;;;;;;;;;;23.01;23.86;95790.00;5158722;27;1082;-59
2023/10/09 12:00:00;;;;;;;;;;;;;;;23.11;23.66;95784.09;5144034;27;1156;-59
2023/10/09 12:02:26;;;;;;;;;;;;;;;23.14;24.18;95787.19;5138260;27;1035;-59
2023/10/09 12:04:55;;;;;;;;;;;;;;;23.24;24.23;95774.91;5137935;27;1120;-59
2023/10/09 12:07:22;;;;;;;;;;;;;;;23.59;24.53;95775.19;5137706;27;977;-59
2023/10/09 12:09:48;;;;;;;;;;;;;;;23.82;23.93;95779.97;5137938;27;1088;-60
2023/10/09 12:12:14;;;;;;;;;;;;;;;23.76;24.23;95751.66;5137863;27;1902;-59
2023/10/09 12:14:40;;;;;;;;;;;;;;;23.80;24.93;95768.44;5137469;27;952;-59
2023/10/09 12:17:07;;;;;;;;;;;;;;;23.68;24.04;95765.63;5137292;27;988;-59
2023/10/09 12:19:33;;;;;;;;;;;;;;;23.52;24.14;95755.31;5137480;27;1052;-59
2023/10/09 12:22:00;;;;;;;;;;;;;;;23.52;24.54;95749.84;5137518;27;1022;-59
2023/10/09 12:24:29;;;;;;;;;;;;;;;23.52;24.54;95749.84;5137718;27;1041;-59
2023/10/09 12:26:55;;;;;;;;;;;;;;;23.52;23.57;95749.84;5137418;27;1079;-59
2023/10/09 12:29:22;;;;;;;;;;;;;;;23.37;23.29;95755.69;5137299;27;1087;-59
2023/10/09 12:31:48;;;;;;;;;;;;;;;23.23;23.94;95743.25;5137268;27;1910;-59
2023/10/09 12:34:16;;;;;;;;;;;;;;;23.23;23.41;95746.81;5137509;27;1044;-59
2023/10/09 12:36:45;;;;;;;;;;;;;;;23.19;24.24;95740.16;5137577;27;952;-59
2023/10/09 12:39:18;;;;;;;;;;;;;;;23.12;24.14;95734.75;5137374;27;1019;-59
2023/10/09 12:41:44;;;;;;;;;;;;;;;23.11;23.94;95724.09;5137552;27;1027;-59
2023/10/09 12:44:19;;;;;;;;;;;;;;;23.15;24.15;95728.84;5118786;27;1087;-59
2023/10/09 12:46:52;;;;;;;;;;;;;;;23.29;25.19;95734.16;5135894;27;2629;-59
2023/10/09 12:49:30;;;;;;;;;;;;;;;23.31;24.81;95726.59;5137146;27;1060;-59
2023/10/09 12:51:57;;;;;;;;;;;;;;;23.32;25.09;95717.34;5137193;27;1901;-59
2023/10/09 12:54:26;;;;;;;;;;;;;;;23.23;25.13;95721.44;5136798;27;1107;-59
2023/10/09 12:56:53;;;;;;;;;;;;;;;23.10;23.69;95717.78;5136881;27;1044;-59
2023/10/09 12:59:20;;;;;;;;;;;;;;;23.03;24.60;95721.59;5136061;27;1137;-59
2023/10/09 13:01:51;;;;;;;;;;;;;;;23.11;24.24;95714.00;5136690;27;1028;-59
2023/10/09 13:04:21;;;;;;;;;;;;;;;23.15;25.02;95707.03;5136908;27;1037;-59
2023/10/09 13:06:51;;;;;;;;;;;;;;;23.14;23.86;95709.97;5137227;27;974;-59
2023/10/09 13:09:42;;;;;;;;;;;;;;;23.18;24.77;95703.00;5136535;27;1197;-59
2023/10/09 13:12:12;;;;;;;;;;;;;;;23.26;25.23;95704.59;5136286;27;1988;-60
2023/10/09 13:14:38;;;;;;;;;;;;;;;23.34;25.76;95696.13;5136984;27;957;-60
2023/10/09 13:17:09;;;;;;;;;;;;;;;23.19;23.48;95697.34;5136767;27;1049;-60
2023/10/09 13:19:36;;;;;;;;;;;;;;;23.13;24.32;95683.78;5136757;27;1197;-60
2023/10/09 13:22:03;;;;;;;;;;;;;;;23.21;24.84;95683.47;5136405;27;1067;-60
2023/10/09 13:24:30;;;;;;;;;;;;;;;23.24;24.49;95679.44;5136283;27;976;-60
2023/10/09 13:26:58;;;;;;;;;;;;;;;23.22;24.93;95678.84;5136303;27;1017;-60
2023/10/09 13:29:24;;;;;;;;;;;;;;;23.16;24.01;95677.84;5136598;27;1047;-60
2023/10/09 13:31:52;;;;;;;;;;;;;;;23.24;23.83;95671.25;5136266;27;1990;-60
2023/10/09 13:34:18;;;;;;;;;;;;;;;23.21;23.65;95671.75;5136071;27;1021;-61
2023/10/09 13:36:53;;;;;;;;;;;;;;;23.21;23.48;95671.75;5136304;27;965;-60
2023/10/09 13:39:22;;;;;;;;;;;;;;;23.33;22.87;95673.44;5136259;27;992;-59
2023/10/09 13:41:48;;;;;;;;;;;;;;;23.34;23.24;95669.69;5136090;27;1064;-59
2023/10/09 13:44:15;;;;;;;;;;;;;;;23.34;24.36;95663.41;5136203;27;965;-59
2023/10/09 13:46:41;;;;;;;;;;;;;;;23.53;24.29;95659.56;5117993;27;976;-59
2023/10/09 13:49:14;;;;;;;;;;;;;;;23.53;25.20;95656.84;5136042;27;991;-60
2023/10/09 13:51:44;;;;;;;;;;;;;;;23.50;24.50;95653.72;5135889;27;2004;-59
2023/10/09 13:54:10;;;;;;;;;;;;;;;23.57;25.00;95654.47;5136587;27;1039;-59
2023/10/09 13:56:39;;;;;;;;;;;;;;;23.60;24.99;95656.75;5135811;27;1256;-59
2023/10/09 13:59:11;;;;;;;;;;;;;;;23.59;25.86;95653.19;5135854;27;1149;-59
2023/10/09 14:01:38;;;;;;;;;;;;;;;23.51;26.53;95649.97;5136111;27;973;-59
2023/10/09 14:04:08;;;;;;;;;;;;;;;23.31;24.01;95648.28;5135712;27;1055;-59
2023/10/09 14:06:34;;;;;;;;;;;;;;;23.21;24.72;95658.09;5117357;27;1111;-60
2023/10/09 14:09:09;;;;;;;;;;;;;;;23.16;24.79;95650.59;5135598;27;1032;-59
2023/10/09 14:11:39;;;;;;;;;;;;;;;23.21;23.88;95658.09;5116113;27;1984;-59
2023/10/09 14:14:09;;;;;;;;;;;;;;;23.21;24.70;95658.91;5135518;27;1905;-59
2023/10/09 17:45:41;;;;;;;;;;;;;;;13.83;57.02;95533.00;5111306;27;1241;-60
2023/10/09 17:48:08;;;;;;;;;;;;;;;14.24;55.45;95535.56;5111219;28;1039;-60
2023/10/09 17:50:41;;;;;;;;;;;;;;;14.41;55.16;95536.31;5109935;28;1173;-58
2023/10/09 17:53:07;;;;;;;;;;;;;;;14.57;54.15;95532.72;5111428;28;1034;-58
2023/10/09 17:55:35;;;;;;;;;;;;;;;14.61;53.94;95542.16;5111340;28;1031;-58
2023/10/09 17:58:09;;;;;;;;;;;;;;;14.75;53.29;95549.44;5111347;28;1153;-58
2023/10/09 18:00:43;;;;;;;;;;;;;;;14.68;53.64;95545.78;5111013;28;972;-58
2023/10/09 18:03:16;;;;;;;;;;;;;;;14.60;53.42;95535.06;5111180;28;1982;-58
2023/10/09 18:05:44;;;;;;;;;;;;;;;14.63;54.08;95532.03;5110948;28;1032;-58
2023/10/09 18:08:14;;;;;;;;;;;;;;;14.42;54.28;95532.63;5111183;28;972;-59
2023/10/09 18:10:43;;;;;;;;;;;;;;;14.15;55.60;95533.91;5111140;28;1042;-58
2023/10/09 18:13:10;;;;;;;;;;;;;;;14.03;55.63;95528.06;5110789;28;913;-59
2023/10/09 18:15:37;;;;;;;;;;;;;;;14.07;55.66;95524.00;5110930;28;1185;-58
2023/10/09 18:18:09;;;;;;;;;;;;;;;14.09;54.84;95523.84;5110992;28;1042;-59
2023/10/09 18:20:42;;;;;;;;;;;;;;;13.92;55.24;95526.59;5110620;28;1036;-59
2023/10/09 18:23:09;;;;;;;;;;;;;;;13.73;56.19;95521.59;5110640;28;1036;-58
2023/10/09 18:25:35;;;;;;;;;;;;;;;13.76;55.90;95521.28;5110495;28;1072;-58
2023/10/09 18:28:02;;;;;;;;;;;;;;;13.91;56.12;95521.41;5110548;28;1107;-58
2023/10/09 18:30:29;;;;;;;;;;;;;;;13.86;55.37;95522.72;5109435;28;1012;-58
2023/10/09 18:32:56;;;;;;;;;;;;;;;13.74;55.16;95526.81;5110645;28;1003;-58
2023/10/09 18:35:22;;;;;;;;;;;;;;;13.60;56.06;95531.03;5110690;28;1071;-58
2023/10/09 18:37:50;;;;;;;;;;;;;;;13.85;55.29;95542.56;5110362;28;1060;-58
2023/10/09 18:40:20;;;;;;;;;;;;;;;13.83;54.67;95543.78;5110594;28;1031;-58
2023/10/09 18:42:47;;;;;;;;;;;;;;;13.87;55.18;95534.34;5110837;28;944;-58
2023/10/09 18:45:15;;;;;;;;;;;;;;;13.69;56.62;95545.28;5110115;28;2001;-59
2023/10/09 18:47:41;;;;;;;;;;;;;;;13.61;57.77;95537.25;5110264;28;933;-58
2023/10/09 18:50:11;;;;;;;;;;;;;;;13.40;57.92;95540.47;5110133;28;1161;-58
2023/10/09 18:52:42;;;;;;;;;;;;;;;13.29;58.10;95542.44;5143493;27;1508;-59
2023/10/09 18:55:11;;;;;;;;;;;;;;;13.44;57.17;95544.47;5106978;28;1044;-59
2023/10/09 18:57:37;;;;;;;;;;;;;;;13.41;57.55;95552.88;5096667;28;1023;-59
2023/10/09 19:00:09;;;;;;;;;;;;;;;13.35;57.96;95553.56;5096481;28;1019;-59
2023/10/09 19:02:35;;;;;;;;;;;;;;;13.31;58.09;95549.53;5096683;28;1047;-58
2023/10/09 19:05:07;;;;;;;;;;;;;;;13.52;56.52;95549.00;5096539;28;1990;-59
2023/10/09 19:07:34;;;;;;;;;;;;;;;13.58;56.69;95551.88;5096229;28;1048;-59
2023/10/09 19:10:00;;;;;;;;;;;;;;;13.74;55.58;95552.84;5096182;28;1170;-58
2023/10/09 19:12:26;;;;;;;;;;;;;;;13.76;55.64;95557.03;5096068;28;1056;-59
2023/10/09 19:14:53;;;;;;;;;;;;;;;13.59;56.98;95545.47;5096431;28;1039;-58
2023/10/09 19:17:19;;;;;;;;;;;;;;;13.42;58.49;95543.81;5096337;28;1036;-59
2023/10/09 19:19:45;;;;;;;;;;;;;;;13.38;58.54;95548.69;5096007;28;960;-59
2023/10/09 19:22:13;;;;;;;;;;;;;;;13.27;58.51;95555.19;5096245;28;1024;-59
2023/10/09 19:24:40;;;;;;;;;;;;;;;13.18;59.30;95556.19;5096062;28;1917;-58
2023/10/09 19:27:06;;;;;;;;;;;;;;;12.97;59.57;95545.94;5096227;28;979;-58
2023/10/09 19:29:32;;;;;;;;;;;;;;;12.86;59.76;95554.31;5095713;28;988;-58
2023/10/09 19:31:58;;;;;;;;;;;;;;;13.04;59.42;95552.34;5095928;28;1023;-58
2023/10/09 19:34:24;;;;;;;;;;;;;;;13.00;59.36;95544.78;5095775;28;1022;-59
2023/10/09 19:36:50;;;;;;;;;;;;;;;13.02;58.92;95550.84;5094474;28;1481;-58
2023/10/09 19:39:16;;;;;;;;;;;;;;;13.23;58.45;95559.22;5094643;28;1122;-58
2023/10/09 19:41:42;;;;;;;;;;;;;;;13.22;58.58;95567.44;5095496;28;1087;-58
2023/10/09 19:44:10;;;;;;;;;;;;;;;13.18;59.23;95558.03;5095123;28;1993;-59
2023/10/09 19:46:38;;;;;;;;;;;;;;;12.77;60.40;95553.47;5095471;28;1051;-59